sensor_id;sensor_type;location;lat;lon;timestamp;P1;durP1;ratioP1;P2;durP2;ratioP2
70213;SDS011;60138;55.808;37.078;2023-05-27T00:01:17;9.50;;;6.70;;
70213;SDS011;60138;55.808;37.078;2023-05-27T00:03:44;9.90;;;7.07;;
70213;SDS011;60138;55.808;37.078;2023-05-27T00:06:10;10.02;;;6.95;;
70213;SDS011;60138;55.808;37.078;2023-05-27T00:08:36;10.30;;;7.93;;
70213;SDS011;60138;55.808;37.078;2023-05-27T00:11:02;9.38;;;7.88;;
70213;SDS011;60138;55.808;37.078;2023-05-27T00:13:27;9.93;;;7.77;;
70213;SDS011;60138;55.808;37.078;2023-05-27T00:15:53;15.20;;;8.18;;
70213;SDS011;60138;55.808;37.078;2023-05-27T00:18:19;14.70;;;9.15;;
70213;SDS011;60138;55.808;37.078;2023-05-27T00:20:45;19.77;;;10.33;;
70213;SDS011;60138;55.808;37.078;2023-05-27T00:23:10;25.63;;;9.25;;
70213;SDS011;60138;55.808;37.078;2023-05-27T00:25:36;15.40;;;7.70;;
70213;SDS011;60138;55.808;37.078;2023-05-27T00:28:02;10.75;;;7.38;;
70213;SDS011;60138;55.808;37.078;2023-05-27T00:30:28;10.67;;;6.93;;
70213;SDS011;60138;55.808;37.078;2023-05-27T00:32:53;12.55;;;7.85;;
70213;SDS011;60138;55.808;37.078;2023-05-27T00:35:20;11.55;;;7.75;;
70213;SDS011;60138;55.808;37.078;2023-05-27T00:37:45;12.37;;;7.77;;
70213;SDS011;60138;55.808;37.078;2023-05-27T00:40:11;11.10;;;8.32;;
70213;SDS011;60138;55.808;37.078;2023-05-27T00:42:40;12.90;;;7.90;;
70213;SDS011;60138;55.808;37.078;2023-05-27T00:45:05;10.10;;;7.70;;
70213;SDS011;60138;55.808;37.078;2023-05-27T00:47:32;13.30;;;9.35;;
70213;SDS011;60138;55.808;37.078;2023-05-27T00:49:58;14.10;;;9.18;;
70213;SDS011;60138;55.808;37.078;2023-05-27T00:52:25;16.17;;;8.60;;
70213;SDS011;60138;55.808;37.078;2023-05-27T00:54:51;12.07;;;8.15;;
70213;SDS011;60138;55.808;37.078;2023-05-27T00:57:17;13.88;;;8.20;;
70213;SDS011;60138;55.808;37.078;2023-05-27T00:59:43;13.32;;;9.20;;
70213;SDS011;60138;55.808;37.078;2023-05-27T01:02:09;11.67;;;8.40;;
70213;SDS011;60138;55.808;37.078;2023-05-27T01:04:34;11.33;;;8.37;;
70213;SDS011;60138;55.808;37.078;2023-05-27T01:10:10;16.58;;;8.93;;
70213;SDS011;60138;55.808;37.078;2023-05-27T01:15:35;13.75;;;8.50;;
70213;SDS011;60138;55.808;37.078;2023-05-27T01:18:02;10.18;;;8.07;;
70213;SDS011;60138;55.808;37.078;2023-05-27T01:20:28;16.95;;;9.43;;
70213;SDS011;60138;55.808;37.078;2023-05-27T01:22:55;10.80;;;7.65;;
70213;SDS011;60138;55.808;37.078;2023-05-27T01:25:22;10.80;;;6.67;;
70213;SDS011;60138;55.808;37.078;2023-05-27T01:27:47;10.50;;;7.75;;
70213;SDS011;60138;55.808;37.078;2023-05-27T01:30:13;10.48;;;6.97;;
70213;SDS011;60138;55.808;37.078;2023-05-27T01:37:52;10.07;;;6.43;;
70213;SDS011;60138;55.808;37.078;2023-05-27T01:40:20;12.07;;;7.05;;
70213;SDS011;60138;55.808;37.078;2023-05-27T01:42:47;9.73;;;7.57;;
70213;SDS011;60138;55.808;37.078;2023-05-27T01:45:14;8.07;;;6.43;;
70213;SDS011;60138;55.808;37.078;2023-05-27T01:47:40;11.77;;;6.68;;
70213;SDS011;60138;55.808;37.078;2023-05-27T01:50:08;9.20;;;6.40;;
70213;SDS011;60138;55.808;37.078;2023-05-27T01:52:34;10.18;;;7.05;;
70213;SDS011;60138;55.808;37.078;2023-05-27T01:55:00;9.73;;;6.43;;
70213;SDS011;60138;55.808;37.078;2023-05-27T01:57:26;7.53;;;5.63;;
70213;SDS011;60138;55.808;37.078;2023-05-27T01:59:51;10.02;;;5.80;;
70213;SDS011;60138;55.808;37.078;2023-05-27T02:02:18;8.48;;;5.70;;
70213;SDS011;60138;55.808;37.078;2023-05-27T02:04:44;11.75;;;6.28;;
70213;SDS011;60138;55.808;37.078;2023-05-27T02:07:10;8.20;;;6.00;;
70213;SDS011;60138;55.808;37.078;2023-05-27T02:09:36;8.18;;;5.80;;
70213;SDS011;60138;55.808;37.078;2023-05-27T02:12:02;7.67;;;5.70;;
70213;SDS011;60138;55.808;37.078;2023-05-27T02:14:30;11.57;;;6.25;;
70213;SDS011;60138;55.808;37.078;2023-05-27T02:16:55;7.95;;;6.03;;
70213;SDS011;60138;55.808;37.078;2023-05-27T02:19:41;11.70;;;6.80;;
70213;SDS011;60138;55.808;37.078;2023-05-27T02:22:09;10.93;;;6.75;;
70213;SDS011;60138;55.808;37.078;2023-05-27T02:24:35;9.30;;;5.10;;
70213;SDS011;60138;55.808;37.078;2023-05-27T02:27:01;7.47;;;6.05;;
70213;SDS011;60138;55.808;37.078;2023-05-27T02:29:27;10.03;;;5.40;;
70213;SDS011;60138;55.808;37.078;2023-05-27T02:31:53;9.80;;;5.30;;
70213;SDS011;60138;55.808;37.078;2023-05-27T02:34:19;8.83;;;4.57;;
70213;SDS011;60138;55.808;37.078;2023-05-27T02:36:45;9.20;;;5.60;;
70213;SDS011;60138;55.808;37.078;2023-05-27T02:39:10;7.22;;;4.72;;
70213;SDS011;60138;55.808;37.078;2023-05-27T02:41:36;15.50;;;5.80;;
70213;SDS011;60138;55.808;37.078;2023-05-27T02:44:04;9.85;;;5.70;;
70213;SDS011;60138;55.808;37.078;2023-05-27T02:46:31;10.48;;;4.80;;
70213;SDS011;60138;55.808;37.078;2023-05-27T02:48:56;7.63;;;5.07;;
70213;SDS011;60138;55.808;37.078;2023-05-27T02:51:23;10.38;;;5.30;;
70213;SDS011;60138;55.808;37.078;2023-05-27T02:53:49;6.95;;;5.13;;
70213;SDS011;60138;55.808;37.078;2023-05-27T02:56:15;6.72;;;4.68;;
70213;SDS011;60138;55.808;37.078;2023-05-27T02:58:42;7.85;;;4.07;;
70213;SDS011;60138;55.808;37.078;2023-05-27T03:01:08;7.63;;;4.60;;
70213;SDS011;60138;55.808;37.078;2023-05-27T03:03:34;7.63;;;4.87;;
70213;SDS011;60138;55.808;37.078;2023-05-27T03:05:59;6.80;;;4.32;;
70213;SDS011;60138;55.808;37.078;2023-05-27T03:08:25;8.00;;;4.20;;
70213;SDS011;60138;55.808;37.078;2023-05-27T03:10:51;10.35;;;4.50;;
70213;SDS011;60138;55.808;37.078;2023-05-27T03:13:17;6.75;;;4.03;;
70213;SDS011;60138;55.808;37.078;2023-05-27T03:15:43;8.77;;;4.30;;
70213;SDS011;60138;55.808;37.078;2023-05-27T03:18:09;7.78;;;4.15;;
70213;SDS011;60138;55.808;37.078;2023-05-27T03:20:35;6.57;;;3.83;;
70213;SDS011;60138;55.808;37.078;2023-05-27T03:23:00;7.93;;;4.78;;
70213;SDS011;60138;55.808;37.078;2023-05-27T03:25:26;7.85;;;4.13;;
70213;SDS011;60138;55.808;37.078;2023-05-27T03:27:52;6.63;;;3.20;;
70213;SDS011;60138;55.808;37.078;2023-05-27T03:30:18;6.72;;;3.97;;
70213;SDS011;60138;55.808;37.078;2023-05-27T03:32:47;10.23;;;4.00;;
70213;SDS011;60138;55.808;37.078;2023-05-27T03:35:16;8.57;;;3.97;;
70213;SDS011;60138;55.808;37.078;2023-05-27T03:37:44;6.97;;;3.42;;
70213;SDS011;60138;55.808;37.078;2023-05-27T03:40:10;6.18;;;3.80;;
70213;SDS011;60138;55.808;37.078;2023-05-27T03:42:38;6.15;;;3.50;;
70213;SDS011;60138;55.808;37.078;2023-05-27T03:45:04;4.87;;;2.93;;
70213;SDS011;60138;55.808;37.078;2023-05-27T03:47:33;4.50;;;2.97;;
70213;SDS011;60138;55.808;37.078;2023-05-27T03:50:00;5.93;;;3.20;;
70213;SDS011;60138;55.808;37.078;2023-05-27T03:52:29;9.93;;;2.67;;
70213;SDS011;60138;55.808;37.078;2023-05-27T03:54:55;5.72;;;3.22;;
70213;SDS011;60138;55.808;37.078;2023-05-27T03:57:21;4.88;;;3.22;;
70213;SDS011;60138;55.808;37.078;2023-05-27T03:59:47;6.77;;;3.13;;
70213;SDS011;60138;55.808;37.078;2023-05-27T04:02:14;7.00;;;3.70;;
70213;SDS011;60138;55.808;37.078;2023-05-27T04:04:40;7.47;;;3.20;;
70213;SDS011;60138;55.808;37.078;2023-05-27T04:07:05;7.13;;;3.17;;
70213;SDS011;60138;55.808;37.078;2023-05-27T04:09:31;6.13;;;2.55;;
70213;SDS011;60138;55.808;37.078;2023-05-27T04:11:58;5.53;;;3.30;;
70213;SDS011;60138;55.808;37.078;2023-05-27T04:14:24;5.87;;;3.73;;
70213;SDS011;60138;55.808;37.078;2023-05-27T04:16:49;5.15;;;2.90;;
70213;SDS011;60138;55.808;37.078;2023-05-27T04:19:18;7.78;;;3.58;;
70213;SDS011;60138;55.808;37.078;2023-05-27T04:21:44;4.70;;;2.47;;
70213;SDS011;60138;55.808;37.078;2023-05-27T04:24:10;6.43;;;3.75;;
70213;SDS011;60138;55.808;37.078;2023-05-27T04:26:36;14.00;;;3.05;;
70213;SDS011;60138;55.808;37.078;2023-05-27T04:29:02;7.63;;;3.47;;
70213;SDS011;60138;55.808;37.078;2023-05-27T04:31:28;10.10;;;3.50;;
70213;SDS011;60138;55.808;37.078;2023-05-27T04:34:04;9.05;;;3.20;;
70213;SDS011;60138;55.808;37.078;2023-05-27T04:36:31;9.60;;;2.83;;
70213;SDS011;60138;55.808;37.078;2023-05-27T04:39:01;14.10;;;2.85;;
70213;SDS011;60138;55.808;37.078;2023-05-27T04:41:28;10.27;;;2.75;;
70213;SDS011;60138;55.808;37.078;2023-05-27T04:44:05;6.22;;;3.20;;
70213;SDS011;60138;55.808;37.078;2023-05-27T04:46:36;7.65;;;2.67;;
70213;SDS011;60138;55.808;37.078;2023-05-27T04:49:02;19.27;;;3.90;;
70213;SDS011;60138;55.808;37.078;2023-05-27T04:51:28;6.75;;;2.53;;
70213;SDS011;60138;55.808;37.078;2023-05-27T04:53:55;6.32;;;2.92;;
70213;SDS011;60138;55.808;37.078;2023-05-27T04:56:22;5.37;;;2.20;;
70213;SDS011;60138;55.808;37.078;2023-05-27T04:58:50;8.85;;;2.58;;
70213;SDS011;60138;55.808;37.078;2023-05-27T05:01:20;9.80;;;2.60;;
70213;SDS011;60138;55.808;37.078;2023-05-27T05:03:54;8.65;;;2.95;;
70213;SDS011;60138;55.808;37.078;2023-05-27T05:06:20;16.38;;;3.70;;
70213;SDS011;60138;55.808;37.078;2023-05-27T05:08:47;15.50;;;3.07;;
70213;SDS011;60138;55.808;37.078;2023-05-27T05:11:13;9.82;;;3.05;;
70213;SDS011;60138;55.808;37.078;2023-05-27T05:13:40;11.68;;;2.80;;
70213;SDS011;60138;55.808;37.078;2023-05-27T05:16:06;10.23;;;2.30;;
70213;SDS011;60138;55.808;37.078;2023-05-27T05:18:32;10.17;;;2.50;;
70213;SDS011;60138;55.808;37.078;2023-05-27T05:20:58;11.07;;;3.10;;
70213;SDS011;60138;55.808;37.078;2023-05-27T05:23:32;12.70;;;2.60;;
70213;SDS011;60138;55.808;37.078;2023-05-27T05:25:58;14.18;;;2.72;;
70213;SDS011;60138;55.808;37.078;2023-05-27T05:28:24;6.72;;;2.50;;
70213;SDS011;60138;55.808;37.078;2023-05-27T05:30:50;4.90;;;2.10;;
70213;SDS011;60138;55.808;37.078;2023-05-27T05:33:16;6.85;;;2.70;;
70213;SDS011;60138;55.808;37.078;2023-05-27T05:35:42;9.30;;;2.70;;
70213;SDS011;60138;55.808;37.078;2023-05-27T05:38:25;7.43;;;3.10;;
70213;SDS011;60138;55.808;37.078;2023-05-27T05:40:52;6.23;;;2.23;;
70213;SDS011;60138;55.808;37.078;2023-05-27T05:43:18;12.02;;;3.20;;
70213;SDS011;60138;55.808;37.078;2023-05-27T05:45:44;7.65;;;2.67;;
70213;SDS011;60138;55.808;37.078;2023-05-27T05:48:10;12.23;;;2.63;;
70213;SDS011;60138;55.808;37.078;2023-05-27T05:50:40;7.20;;;1.80;;
70213;SDS011;60138;55.808;37.078;2023-05-27T05:53:07;8.05;;;2.67;;
70213;SDS011;60138;55.808;37.078;2023-05-27T05:55:34;4.85;;;2.33;;
70213;SDS011;60138;55.808;37.078;2023-05-27T05:58:00;12.82;;;3.35;;
70213;SDS011;60138;55.808;37.078;2023-05-27T06:00:25;11.45;;;3.15;;
70213;SDS011;60138;55.808;37.078;2023-05-27T06:02:59;10.23;;;2.80;;
70213;SDS011;60138;55.808;37.078;2023-05-27T06:05:51;11.85;;;2.70;;
70213;SDS011;60138;55.808;37.078;2023-05-27T06:08:17;6.93;;;2.17;;
70213;SDS011;60138;55.808;37.078;2023-05-27T06:10:50;9.10;;;2.45;;
70213;SDS011;60138;55.808;37.078;2023-05-27T06:13:16;14.40;;;3.72;;
70213;SDS011;60138;55.808;37.078;2023-05-27T06:15:43;12.50;;;3.00;;
70213;SDS011;60138;55.808;37.078;2023-05-27T06:18:10;6.70;;;2.50;;
70213;SDS011;60138;55.808;37.078;2023-05-27T06:20:36;13.23;;;2.40;;
70213;SDS011;60138;55.808;37.078;2023-05-27T06:23:02;16.50;;;2.87;;
70213;SDS011;60138;55.808;37.078;2023-05-27T06:25:30;8.80;;;2.78;;
70213;SDS011;60138;55.808;37.078;2023-05-27T06:28:00;11.15;;;3.08;;
70213;SDS011;60138;55.808;37.078;2023-05-27T06:30:26;5.47;;;2.00;;
70213;SDS011;60138;55.808;37.078;2023-05-27T06:32:53;11.63;;;2.77;;
70213;SDS011;60138;55.808;37.078;2023-05-27T06:35:21;10.10;;;3.03;;
70213;SDS011;60138;55.808;37.078;2023-05-27T06:37:47;9.57;;;3.50;;
70213;SDS011;60138;55.808;37.078;2023-05-27T06:40:13;15.35;;;3.45;;
70213;SDS011;60138;55.808;37.078;2023-05-27T06:42:39;10.18;;;2.30;;
70213;SDS011;60138;55.808;37.078;2023-05-27T06:45:12;7.00;;;2.30;;
70213;SDS011;60138;55.808;37.078;2023-05-27T06:47:38;7.70;;;3.08;;
70213;SDS011;60138;55.808;37.078;2023-05-27T06:50:04;6.25;;;2.38;;
70213;SDS011;60138;55.808;37.078;2023-05-27T06:52:30;12.00;;;3.03;;
70213;SDS011;60138;55.808;37.078;2023-05-27T06:55:25;12.13;;;2.55;;
70213;SDS011;60138;55.808;37.078;2023-05-27T06:58:09;4.43;;;2.13;;
70213;SDS011;60138;55.808;37.078;2023-05-27T07:00:49;4.03;;;2.25;;
70213;SDS011;60138;55.808;37.078;2023-05-27T07:03:35;6.45;;;2.72;;
70213;SDS011;60138;55.808;37.078;2023-05-27T07:06:02;10.98;;;3.17;;
70213;SDS011;60138;55.808;37.078;2023-05-27T07:08:35;8.68;;;3.20;;
70213;SDS011;60138;55.808;37.078;2023-05-27T07:11:11;10.47;;;3.40;;
70213;SDS011;60138;55.808;37.078;2023-05-27T07:13:37;6.20;;;2.42;;
70213;SDS011;60138;55.808;37.078;2023-05-27T07:16:03;10.85;;;3.28;;
70213;SDS011;60138;55.808;37.078;2023-05-27T07:18:30;14.48;;;3.50;;
70213;SDS011;60138;55.808;37.078;2023-05-27T07:20:58;19.13;;;4.37;;
70213;SDS011;60138;55.808;37.078;2023-05-27T07:23:24;12.70;;;3.13;;
70213;SDS011;60138;55.808;37.078;2023-05-27T07:25:59;16.83;;;4.20;;
70213;SDS011;60138;55.808;37.078;2023-05-27T07:28:25;8.83;;;3.20;;
70213;SDS011;60138;55.808;37.078;2023-05-27T07:30:59;9.85;;;3.15;;
70213;SDS011;60138;55.808;37.078;2023-05-27T07:33:26;13.77;;;3.30;;
70213;SDS011;60138;55.808;37.078;2023-05-27T07:35:51;15.73;;;3.55;;
70213;SDS011;60138;55.808;37.078;2023-05-27T07:38:17;9.57;;;3.30;;
70213;SDS011;60138;55.808;37.078;2023-05-27T07:40:43;8.55;;;3.72;;
70213;SDS011;60138;55.808;37.078;2023-05-27T07:43:09;10.38;;;3.15;;
70213;SDS011;60138;55.808;37.078;2023-05-27T07:45:35;13.40;;;3.60;;
70213;SDS011;60138;55.808;37.078;2023-05-27T07:48:01;15.48;;;3.10;;
70213;SDS011;60138;55.808;37.078;2023-05-27T07:50:27;24.20;;;3.37;;
70213;SDS011;60138;55.808;37.078;2023-05-27T07:53:01;14.50;;;3.47;;
70213;SDS011;60138;55.808;37.078;2023-05-27T07:55:28;20.83;;;3.38;;
70213;SDS011;60138;55.808;37.078;2023-05-27T07:57:54;29.70;;;4.63;;
70213;SDS011;60138;55.808;37.078;2023-05-27T08:00:21;12.95;;;3.28;;
70213;SDS011;60138;55.808;37.078;2023-05-27T08:02:54;17.33;;;3.38;;
70213;SDS011;60138;55.808;37.078;2023-05-27T08:05:40;5.85;;;2.65;;
70213;SDS011;60138;55.808;37.078;2023-05-27T08:08:18;14.82;;;3.70;;
70213;SDS011;60138;55.808;37.078;2023-05-27T08:11:02;9.50;;;2.63;;
70213;SDS011;60138;55.808;37.078;2023-05-27T08:13:45;12.02;;;5.03;;
70213;SDS011;60138;55.808;37.078;2023-05-27T08:16:25;17.23;;;4.97;;
70213;SDS011;60138;55.808;37.078;2023-05-27T08:19:14;14.35;;;4.63;;
70213;SDS011;60138;55.808;37.078;2023-05-27T08:22:00;24.52;;;4.90;;
70213;SDS011;60138;55.808;37.078;2023-05-27T08:24:44;26.77;;;6.37;;
70213;SDS011;60138;55.808;37.078;2023-05-27T08:27:41;18.88;;;4.57;;
70213;SDS011;60138;55.808;37.078;2023-05-27T08:30:20;8.60;;;4.10;;
70213;SDS011;60138;55.808;37.078;2023-05-27T08:32:54;11.65;;;4.90;;
70213;SDS011;60138;55.808;37.078;2023-05-27T08:35:21;7.13;;;3.35;;
70213;SDS011;60138;55.808;37.078;2023-05-27T08:37:47;21.93;;;6.50;;
70213;SDS011;60138;55.808;37.078;2023-05-27T08:40:14;33.90;;;4.47;;
70213;SDS011;60138;55.808;37.078;2023-05-27T08:42:46;28.80;;;4.35;;
70213;SDS011;60138;55.808;37.078;2023-05-27T08:45:13;19.27;;;4.35;;
70213;SDS011;60138;55.808;37.078;2023-05-27T08:47:39;15.88;;;2.95;;
70213;SDS011;60138;55.808;37.078;2023-05-27T08:50:08;16.97;;;3.60;;
70213;SDS011;60138;55.808;37.078;2023-05-27T08:52:36;17.58;;;3.55;;
70213;SDS011;60138;55.808;37.078;2023-05-27T08:55:08;23.17;;;3.80;;
70213;SDS011;60138;55.808;37.078;2023-05-27T08:57:35;7.53;;;2.70;;
70213;SDS011;60138;55.808;37.078;2023-05-27T09:00:03;11.50;;;3.53;;
70213;SDS011;60138;55.808;37.078;2023-05-27T09:02:31;40.63;;;5.57;;
70213;SDS011;60138;55.808;37.078;2023-05-27T09:04:57;20.42;;;3.70;;
70213;SDS011;60138;55.808;37.078;2023-05-27T09:07:23;19.20;;;5.07;;
70213;SDS011;60138;55.808;37.078;2023-05-27T09:09:57;17.45;;;4.20;;
70213;SDS011;60138;55.808;37.078;2023-05-27T09:12:24;13.70;;;4.00;;
70213;SDS011;60138;55.808;37.078;2023-05-27T09:14:51;21.70;;;4.85;;
70213;SDS011;60138;55.808;37.078;2023-05-27T09:17:17;16.37;;;3.37;;
70213;SDS011;60138;55.808;37.078;2023-05-27T09:19:46;28.67;;;4.95;;
70213;SDS011;60138;55.808;37.078;2023-05-27T09:27:36;23.20;;;4.30;;
70213;SDS011;60138;55.808;37.078;2023-05-27T09:30:05;16.08;;;4.63;;
70213;SDS011;60138;55.808;37.078;2023-05-27T09:32:33;16.17;;;5.57;;
70213;SDS011;60138;55.808;37.078;2023-05-27T09:35:00;20.58;;;4.47;;
70213;SDS011;60138;55.808;37.078;2023-05-27T09:37:30;19.77;;;3.40;;
70213;SDS011;60138;55.808;37.078;2023-05-27T09:40:10;11.32;;;3.22;;
70213;SDS011;60138;55.808;37.078;2023-05-27T09:42:44;15.95;;;3.20;;
70213;SDS011;60138;55.808;37.078;2023-05-27T09:45:21;11.45;;;2.80;;
70213;SDS011;60138;55.808;37.078;2023-05-27T09:47:48;11.32;;;2.85;;
70213;SDS011;60138;55.808;37.078;2023-05-27T09:50:15;20.83;;;4.77;;
70213;SDS011;60138;55.808;37.078;2023-05-27T09:52:45;30.00;;;4.53;;
70213;SDS011;60138;55.808;37.078;2023-05-27T09:55:11;15.48;;;2.80;;
70213;SDS011;60138;55.808;37.078;2023-05-27T09:57:38;17.17;;;3.90;;
70213;SDS011;60138;55.808;37.078;2023-05-27T10:00:09;26.25;;;4.60;;
70213;SDS011;60138;55.808;37.078;2023-05-27T10:02:38;12.93;;;3.53;;
70213;SDS011;60138;55.808;37.078;2023-05-27T10:05:07;12.80;;;3.22;;
70213;SDS011;60138;55.808;37.078;2023-05-27T10:07:35;22.33;;;5.60;;
70213;SDS011;60138;55.808;37.078;2023-05-27T10:10:02;9.23;;;3.08;;
70213;SDS011;60138;55.808;37.078;2023-05-27T10:12:29;8.45;;;2.67;;
70213;SDS011;60138;55.808;37.078;2023-05-27T10:14:55;6.83;;;2.47;;
70213;SDS011;60138;55.808;37.078;2023-05-27T10:17:21;6.97;;;2.20;;
70213;SDS011;60138;55.808;37.078;2023-05-27T10:19:53;4.87;;;2.50;;
70213;SDS011;60138;55.808;37.078;2023-05-27T10:22:21;5.10;;;2.80;;
70213;SDS011;60138;55.808;37.078;2023-05-27T10:24:47;13.50;;;3.08;;
70213;SDS011;60138;55.808;37.078;2023-05-27T10:27:13;14.10;;;3.17;;
70213;SDS011;60138;55.808;37.078;2023-05-27T10:29:39;5.63;;;2.10;;
70213;SDS011;60138;55.808;37.078;2023-05-27T10:32:05;17.10;;;3.75;;
70213;SDS011;60138;55.808;37.078;2023-05-27T10:34:34;15.73;;;4.55;;
70213;SDS011;60138;55.808;37.078;2023-05-27T10:37:01;29.70;;;4.53;;
70213;SDS011;60138;55.808;37.078;2023-05-27T10:39:27;11.40;;;2.85;;
70213;SDS011;60138;55.808;37.078;2023-05-27T10:41:53;8.48;;;3.05;;
70213;SDS011;60138;55.808;37.078;2023-05-27T10:49:27;23.35;;;3.83;;
70213;SDS011;60138;55.808;37.078;2023-05-27T10:51:53;10.13;;;2.60;;
70213;SDS011;60138;55.808;37.078;2023-05-27T10:54:19;6.95;;;2.70;;
70213;SDS011;60138;55.808;37.078;2023-05-27T10:56:50;6.13;;;2.27;;
70213;SDS011;60138;55.808;37.078;2023-05-27T10:59:20;8.05;;;2.50;;
70213;SDS011;60138;55.808;37.078;2023-05-27T11:01:50;8.10;;;2.50;;
70213;SDS011;60138;55.808;37.078;2023-05-27T11:04:17;10.77;;;2.47;;
70213;SDS011;60138;55.808;37.078;2023-05-27T11:06:55;11.98;;;4.50;;
70213;SDS011;60138;55.808;37.078;2023-05-27T11:09:24;9.07;;;2.63;;
70213;SDS011;60138;55.808;37.078;2023-05-27T11:11:50;8.18;;;2.63;;
70213;SDS011;60138;55.808;37.078;2023-05-27T11:14:16;5.87;;;2.77;;
70213;SDS011;60138;55.808;37.078;2023-05-27T11:16:45;5.63;;;2.80;;
70213;SDS011;60138;55.808;37.078;2023-05-27T11:19:12;7.28;;;2.75;;
70213;SDS011;60138;55.808;37.078;2023-05-27T11:21:43;7.57;;;1.80;;
70213;SDS011;60138;55.808;37.078;2023-05-27T11:24:16;14.07;;;2.30;;
70213;SDS011;60138;55.808;37.078;2023-05-27T11:26:46;5.75;;;2.10;;
70213;SDS011;60138;55.808;37.078;2023-05-27T11:29:13;4.93;;;2.47;;
70213;SDS011;60138;55.808;37.078;2023-05-27T11:31:40;8.83;;;2.43;;
70213;SDS011;60138;55.808;37.078;2023-05-27T11:34:16;7.40;;;2.10;;
70213;SDS011;60138;55.808;37.078;2023-05-27T11:36:48;11.40;;;2.50;;
70213;SDS011;60138;55.808;37.078;2023-05-27T11:39:14;6.93;;;2.17;;
70213;SDS011;60138;55.808;37.078;2023-05-27T11:41:50;4.35;;;1.73;;
70213;SDS011;60138;55.808;37.078;2023-05-27T11:44:19;12.23;;;2.30;;
70213;SDS011;60138;55.808;37.078;2023-05-27T11:46:47;11.73;;;2.70;;
70213;SDS011;60138;55.808;37.078;2023-05-27T11:49:14;6.95;;;2.80;;
70213;SDS011;60138;55.808;37.078;2023-05-27T11:51:41;6.90;;;2.17;;
70213;SDS011;60138;55.808;37.078;2023-05-27T11:54:17;6.45;;;2.20;;
70213;SDS011;60138;55.808;37.078;2023-05-27T11:56:43;28.93;;;5.50;;
70213;SDS011;60138;55.808;37.078;2023-05-27T11:59:08;12.57;;;2.58;;
70213;SDS011;60138;55.808;37.078;2023-05-27T12:01:34;8.50;;;2.57;;
70213;SDS011;60138;55.808;37.078;2023-05-27T12:04:00;6.20;;;1.60;;
70213;SDS011;60138;55.808;37.078;2023-05-27T12:06:25;7.00;;;1.97;;
70213;SDS011;60138;55.808;37.078;2023-05-27T12:08:51;4.68;;;1.65;;
70213;SDS011;60138;55.808;37.078;2023-05-27T12:11:17;9.53;;;1.80;;
70213;SDS011;60138;55.808;37.078;2023-05-27T12:13:42;16.05;;;2.50;;
70213;SDS011;60138;55.808;37.078;2023-05-27T12:16:09;28.00;;;3.70;;
70213;SDS011;60138;55.808;37.078;2023-05-27T12:18:35;20.37;;;2.60;;
70213;SDS011;60138;55.808;37.078;2023-05-27T12:21:00;21.10;;;3.33;;
70213;SDS011;60138;55.808;37.078;2023-05-27T12:23:26;17.17;;;5.83;;
70213;SDS011;60138;55.808;37.078;2023-05-27T12:25:52;6.45;;;2.13;;
70213;SDS011;60138;55.808;37.078;2023-05-27T12:28:18;7.70;;;2.30;;
70213;SDS011;60138;55.808;37.078;2023-05-27T12:30:43;10.45;;;2.35;;
70213;SDS011;60138;55.808;37.078;2023-05-27T12:33:09;7.63;;;2.40;;
70213;SDS011;60138;55.808;37.078;2023-05-27T12:35:35;35.30;;;3.33;;
70213;SDS011;60138;55.808;37.078;2023-05-27T12:38:00;14.63;;;3.53;;
70213;SDS011;60138;55.808;37.078;2023-05-27T12:40:26;17.87;;;3.80;;
70213;SDS011;60138;55.808;37.078;2023-05-27T12:42:52;19.67;;;4.18;;
70213;SDS011;60138;55.808;37.078;2023-05-27T12:45:18;25.10;;;5.60;;
70213;SDS011;60138;55.808;37.078;2023-05-27T12:47:44;19.43;;;3.33;;
70213;SDS011;60138;55.808;37.078;2023-05-27T12:50:10;22.15;;;4.28;;
70213;SDS011;60138;55.808;37.078;2023-05-27T12:52:35;11.97;;;2.87;;
70213;SDS011;60138;55.808;37.078;2023-05-27T12:55:01;6.13;;;2.17;;
70213;SDS011;60138;55.808;37.078;2023-05-27T12:57:29;6.55;;;1.58;;
70213;SDS011;60138;55.808;37.078;2023-05-27T12:59:55;16.57;;;4.20;;
70213;SDS011;60138;55.808;37.078;2023-05-27T13:02:21;15.38;;;2.60;;
70213;SDS011;60138;55.808;37.078;2023-05-27T13:04:46;7.47;;;2.10;;
70213;SDS011;60138;55.808;37.078;2023-05-27T13:07:12;18.45;;;3.20;;
70213;SDS011;60138;55.808;37.078;2023-05-27T13:09:39;9.33;;;2.17;;
70213;SDS011;60138;55.808;37.078;2023-05-27T13:12:05;12.55;;;4.22;;
70213;SDS011;60138;55.808;37.078;2023-05-27T13:14:31;10.32;;;2.42;;
70213;SDS011;60138;55.808;37.078;2023-05-27T13:16:57;10.70;;;3.23;;
70213;SDS011;60138;55.808;37.078;2023-05-27T13:19:23;13.90;;;3.72;;
70213;SDS011;60138;55.808;37.078;2023-05-27T13:21:49;8.10;;;3.08;;
70213;SDS011;60138;55.808;37.078;2023-05-27T13:24:15;4.95;;;2.08;;
70213;SDS011;60138;55.808;37.078;2023-05-27T13:26:41;6.23;;;1.93;;
70213;SDS011;60138;55.808;37.078;2023-05-27T13:29:06;5.93;;;2.00;;
70213;SDS011;60138;55.808;37.078;2023-05-27T13:31:32;7.10;;;1.70;;
70213;SDS011;60138;55.808;37.078;2023-05-27T13:33:58;7.93;;;2.15;;
70213;SDS011;60138;55.808;37.078;2023-05-27T13:36:24;6.90;;;2.10;;
70213;SDS011;60138;55.808;37.078;2023-05-27T13:38:50;9.50;;;3.00;;
70213;SDS011;60138;55.808;37.078;2023-05-27T13:41:15;7.25;;;1.85;;
70213;SDS011;60138;55.808;37.078;2023-05-27T13:43:41;8.37;;;1.90;;
70213;SDS011;60138;55.808;37.078;2023-05-27T13:46:07;6.22;;;1.80;;
70213;SDS011;60138;55.808;37.078;2023-05-27T13:48:32;6.50;;;2.03;;
70213;SDS011;60138;55.808;37.078;2023-05-27T13:50:58;8.70;;;1.88;;
70213;SDS011;60138;55.808;37.078;2023-05-27T13:53:24;7.27;;;2.57;;
70213;SDS011;60138;55.808;37.078;2023-05-27T13:55:50;11.40;;;2.00;;
70213;SDS011;60138;55.808;37.078;2023-05-27T13:58:15;11.80;;;2.17;;
70213;SDS011;60138;55.808;37.078;2023-05-27T14:00:42;22.90;;;3.20;;
70213;SDS011;60138;55.808;37.078;2023-05-27T14:03:08;13.90;;;2.13;;
70213;SDS011;60138;55.808;37.078;2023-05-27T14:05:33;10.17;;;2.40;;
70213;SDS011;60138;55.808;37.078;2023-05-27T14:07:59;10.95;;;2.20;;
70213;SDS011;60138;55.808;37.078;2023-05-27T14:10:25;17.33;;;3.00;;
70213;SDS011;60138;55.808;37.078;2023-05-27T14:12:51;11.60;;;2.77;;
70213;SDS011;60138;55.808;37.078;2023-05-27T14:15:16;10.70;;;3.30;;
70213;SDS011;60138;55.808;37.078;2023-05-27T14:17:42;12.63;;;3.13;;
70213;SDS011;60138;55.808;37.078;2023-05-27T14:20:08;13.32;;;3.20;;
70213;SDS011;60138;55.808;37.078;2023-05-27T14:22:34;12.07;;;2.30;;
70213;SDS011;60138;55.808;37.078;2023-05-27T14:25:00;28.45;;;5.10;;
70213;SDS011;60138;55.808;37.078;2023-05-27T14:27:25;9.33;;;2.53;;
70213;SDS011;60138;55.808;37.078;2023-05-27T14:29:51;19.93;;;3.23;;
70213;SDS011;60138;55.808;37.078;2023-05-27T14:32:17;14.05;;;2.40;;
70213;SDS011;60138;55.808;37.078;2023-05-27T14:34:43;10.50;;;2.57;;
70213;SDS011;60138;55.808;37.078;2023-05-27T14:37:08;14.20;;;2.67;;
70213;SDS011;60138;55.808;37.078;2023-05-27T14:39:34;10.45;;;2.60;;
70213;SDS011;60138;55.808;37.078;2023-05-27T14:42:00;9.87;;;2.40;;
70213;SDS011;60138;55.808;37.078;2023-05-27T14:44:25;10.07;;;2.13;;
70213;SDS011;60138;55.808;37.078;2023-05-27T14:46:51;6.63;;;2.10;;
70213;SDS011;60138;55.808;37.078;2023-05-27T14:49:17;8.47;;;2.33;;
70213;SDS011;60138;55.808;37.078;2023-05-27T14:51:43;15.00;;;2.47;;
70213;SDS011;60138;55.808;37.078;2023-05-27T14:54:08;38.03;;;3.30;;